ProRodeoTv.Com
Red

PRCA Stock Statistics

SEARCH BY:
Stock Rodeo Contestant Stock Contractor

Tim O'Connell

EVENT:
Unofficial results reflect placement at time of Web posting and can change.

SEASON BREAKDOWN

Season Attempts Qual Rides Re-rides Ride %
2017 88 84 0 95.45 %
2016 95 89 0 93.68 %
2015 76 70 0 92.11 %
2014 73 69 0 94.52 %
Totals 332 312 0 0.00 %

RODEO DETAIL

Date Location Rodeo SC Brand Ride Comments Stock Score Contestant Score
9/29/2017 Sioux Falls, SD Sioux Falls Premier Rodeo WCC Finale C5 96 85.50 20.00 / 21.00 23.00 / 21.50
9/22/2017 Stephenville, TX Cowboy Capital Of The World PRCA Rodeo CR 474 87.00 21.00 / 20.50 22.00 / 23.50
9/21/2017 Amarillo, TX Amarillo Tri-State Fair And Rodeo SH 22 78.50 15.50 / 19.00 21.00 / 23.00
9/16/2017 Albuquerque, NM New Mexico State Fair & Rodeo CB T62 78.00 18.00 / 16.00 22.00 / 22.00
9/15/2017 Pendleton, OR Pendleton Round-Up JD 7R 78.00 20.00 / 21.00 21.00 / 16.00
9/12/2017 Pendleton, OR Pendleton Round-Up SA 363 80.50 20.50 / 19.00 21.00 / 20.00
9/9/2017 Puyallup, WA Washington State Fair Pro Rodeo CA Y-34 85.50 20.00 / 19.00 23.00 / 23.50
9/8/2017 Puyallup, WA Washington State Fair Pro Rodeo TB 438 69.00 19.00 / 18.00 16.00 / 16.00
9/8/2017 Puyallup, WA Washington State Fair Pro Rodeo TB 304 83.50 18.00 / 18.50 23.00 / 24.00
9/7/2017 Fort Madison, IA Tri-State Rodeo CB T82 82.00 18.00 / 20.00 22.00 / 22.00
9/4/2017 Dayton, IA Dayton Championship Rodeo CB O30 81.50 19.00 / 17.00 22.00 / 23.50
9/3/2017 Pine City, MN Pine City Championship PRCA Rodeo DK 173 0.00 21.00 / 23.00 0.00 / 0.00
9/2/2017 Palestine, IL Pioneer City Rodeo BA 1Z8 86.00 21.00 / 19.00 23.00 / 23.00
9/1/2017 Elk City, OK Elk City Rodeo Of Champions BU 122 85.50 20.00 / 20.00 21.50 / 24.00
8/25/2017 Tremonton, UT Golden Spike Rodeo BT 7W4 83.00 19.00 / 19.00 22.00 / 23.00
8/25/2017 Kennewick, WA Horse Heaven Round-Up CA Y-92 88.00 21.00 / 21.50 22.00 / 23.50
8/25/2017 San Juan Capistrano, CA Rancho Mission Viejo Rodeo CC S37 84.00 19.00 / 19.00 23.00 / 23.00
8/24/2017 Rapid City, SD Range Days Rodeo BH 564 81.00 20.00 / 22.00 21.00 / 18.00
8/22/2017 Kennewick, WA Horse Heaven Round-Up CA L-124 83.00 19.00 / 18.00 23.00 / 23.00
8/12/2017 Sikeston, MO Sikeston Jaycee Bootheel Rodeo RH 11 85.00 19.00 / 20.50 22.50 / 23.00
8/11/2017 Lawton, OK Lawton Rangers Rodeo BU 837 85.00 19.00 / 20.50 23.00 / 22.50
8/6/2017 Dodge City, KS Dodge City Roundup Rodeo FR 105 81.50 20.00 / 20.00 20.50 / 21.00
8/5/2017 Idaho Falls, ID War Bonnet Roundup Rodeo UP 030 0.00 23.00 / 21.50 0.00 / 0.00
8/3/2017 Carson, IA Carson Community Rodeo TH M13 87.00 22.00 / 20.00 22.00 / 23.00
8/2/2017 Dodge City, KS Dodge City Roundup Rodeo HV 829 86.50 20.00 / 20.00 23.00 / 23.50
Page of 4
Per Page
 
 
 
Copyright © 2017 Professional Rodeo Cowboys Association. All rights reserved. No portion of ProRodeo.com may be duplicated, redistributed or manipulated in any form. By accessing any information beyond this page, you agree to abide by the Terms of Use.
PRCA Wrangler National Finals Rodeo Wrangler Champions Challenge Justin Boots Playoffs Xtreme Bulls RAM National Circuit Finals Rodeo ProRodeo Gear ProRodeoTv.com var gaJsHost = (("https:" == document.location.protocol) ? "https://ssl." : "http://www."); document.write(unescape("%3Cscript src='" + gaJsHost + "google-analytics.com/ga.js' type='text/javascript'%3E%3C/script%3E"));